createdAt,value
2022-12-18T00:00:57.403Z,101415.98
2022-12-18T00:06:17.745Z,101424.11
2022-12-18T00:11:23.195Z,101428.25
2022-12-18T00:16:27.103Z,101432.85
2022-12-18T00:21:46.469Z,101441.52
2022-12-18T00:26:48.951Z,101455.57
2022-12-18T00:31:51.638Z,101465.23
2022-12-18T00:36:54.341Z,101465.34
2022-12-18T00:41:59.838Z,101467.18
2022-12-18T00:47:02.375Z,101469.48
2022-12-18T00:52:05.452Z,101480.83
2022-12-18T00:57:07.951Z,101486.68
2022-12-18T01:02:10.608Z,101494.64
2022-12-18T01:07:13.144Z,101494.04
2022-12-18T01:12:15.815Z,101494.95
2022-12-18T01:17:18.423Z,101496.02
2022-12-18T01:22:20.949Z,101495.69
2022-12-18T01:27:23.474Z,101510.96
2022-12-18T01:32:25.993Z,101522.70
2022-12-18T01:37:28.597Z,101523.79
2022-12-18T01:42:31.140Z,101536.65
2022-12-18T01:47:37.590Z,101543.08
2022-12-18T01:52:43.210Z,101545.16
2022-12-18T01:57:45.974Z,101541.31
2022-12-18T02:02:49.035Z,101546.89
2022-12-18T02:08:19.297Z,101545.33
2022-12-18T02:13:33.280Z,101546.31
2022-12-18T02:18:45.129Z,101553.92
2022-12-18T02:23:50.539Z,101562.06
2022-12-18T02:28:59.613Z,101565.38
2022-12-18T02:34:05.737Z,101570.11
2022-12-18T02:39:09.952Z,101569.89
2022-12-18T02:44:14.522Z,101572.00
2022-12-18T02:49:23.072Z,101572.75
2022-12-18T02:54:32.499Z,101583.31
2022-12-18T02:59:43.968Z,101602.17
2022-12-18T03:04:55.482Z,101604.94
2022-12-18T03:09:59.092Z,101603.42
2022-12-18T03:15:15.939Z,101618.25
2022-12-18T03:20:22.994Z,101621.41
2022-12-18T03:25:27.653Z,101628.04
2022-12-18T03:30:34.855Z,101623.65
2022-12-18T03:35:41.127Z,101626.05
2022-12-18T03:40:51.851Z,101628.98
2022-12-18T03:46:03.878Z,101629.75
2022-12-18T03:51:10.964Z,101638.55
2022-12-18T03:56:17.092Z,101648.96
2022-12-18T04:01:21.899Z,101648.06
2022-12-18T04:06:24.556Z,101647.75
2022-12-18T04:11:27.316Z,101656.11
2022-12-18T04:16:30.103Z,101653.15
2022-12-18T04:21:32.581Z,101664.44
2022-12-18T04:26:35.193Z,101671.10
2022-12-18T04:31:37.878Z,101668.98
2022-12-18T04:36:40.402Z,101674.02
2022-12-18T04:41:42.863Z,101685.84
2022-12-18T04:46:45.434Z,101698.70
2022-12-18T04:51:48.000Z,101702.61
2022-12-18T04:56:50.543Z,101707.45
2022-12-18T05:01:53.241Z,101709.05
2022-12-18T05:06:55.868Z,101709.59
2022-12-18T05:11:58.344Z,101708.96
2022-12-18T05:17:01.408Z,101713.27
2022-12-18T05:22:04.039Z,101724.27
2022-12-18T05:27:06.566Z,101727.70
2022-12-18T05:32:09.035Z,101736.43
2022-12-18T05:37:11.526Z,101744.62
2022-12-18T05:42:13.996Z,101753.11
2022-12-18T05:47:16.747Z,101761.94
2022-12-18T05:52:19.307Z,101759.61
2022-12-18T05:57:21.823Z,101765.69
2022-12-18T06:02:24.430Z,101768.81
2022-12-18T06:07:27.141Z,101772.33
2022-12-18T06:12:29.615Z,101780.72
2022-12-18T06:17:33.494Z,101791.02
2022-12-18T06:22:36.096Z,101791.77
2022-12-18T06:27:38.653Z,101806.96
2022-12-18T06:32:41.231Z,101799.86
2022-12-18T06:37:43.736Z,101804.40
2022-12-18T06:42:46.434Z,101810.46
2022-12-18T06:47:48.889Z,101817.73
2022-12-18T06:52:51.403Z,101820.70
2022-12-18T06:57:53.932Z,101834.27
2022-12-18T07:02:56.461Z,101837.52
2022-12-18T07:07:59.707Z,101851.29
2022-12-18T07:13:02.183Z,101857.56
2022-12-18T07:18:04.794Z,101862.34
2022-12-18T07:23:07.612Z,101873.38
2022-12-18T07:28:15.627Z,101878.48
2022-12-18T07:33:19.760Z,101878.16
2022-12-18T07:38:22.951Z,101885.96
2022-12-18T07:43:25.398Z,101891.15
2022-12-18T07:48:29.425Z,101890.67
2022-12-18T07:53:33.337Z,101898.30
2022-12-18T07:58:36.533Z,101896.69
2022-12-18T08:03:40.983Z,101895.52
2022-12-18T08:08:45.207Z,101899.92
2022-12-18T08:13:47.662Z,101899.08
2022-12-18T08:18:50.632Z,101897.12
2022-12-18T08:23:54.854Z,101908.10
2022-12-18T08:28:59.457Z,101924.65
2022-12-18T08:34:02.007Z,101924.75
2022-12-18T08:39:04.520Z,101932.20
2022-12-18T08:44:11.542Z,101943.56
2022-12-18T08:49:14.238Z,101950.49
2022-12-18T08:54:16.702Z,101956.84
2022-12-18T08:59:20.786Z,101959.53
2022-12-18T09:04:23.558Z,101967.98
2022-12-18T09:09:26.048Z,101979.62
2022-12-18T09:14:28.550Z,101988.52
2022-12-18T09:19:31.241Z,101989.27
2022-12-18T09:24:33.782Z,101967.84
2022-12-18T09:29:36.242Z,101979.61
2022-12-18T09:34:38.729Z,101991.52
2022-12-18T09:39:41.210Z,101996.08
2022-12-18T09:44:48.935Z,101987.10
2022-12-18T09:49:57.409Z,101995.23
2022-12-18T09:55:05.804Z,102002.02
2022-12-18T10:00:19.573Z,102005.29
2022-12-18T10:05:34.934Z,102004.27
2022-12-18T10:10:49.696Z,101982.36
2022-12-18T10:15:59.372Z,101983.05
2022-12-18T10:21:12.769Z,101986.65
2022-12-18T10:26:15.421Z,101986.38
2022-12-18T10:31:24.758Z,101987.98
2022-12-18T10:36:27.720Z,101982.41
2022-12-18T10:41:31.824Z,101980.38
2022-12-18T10:46:34.464Z,101981.30
2022-12-18T10:51:38.622Z,101977.27
2022-12-18T10:56:41.678Z,101971.21
2022-12-18T11:01:50.452Z,101979.64
2022-12-18T11:06:54.784Z,101992.54
2022-12-18T11:12:00.436Z,101984.11
2022-12-18T11:17:25.428Z,101977.79
2022-12-18T11:22:32.316Z,101985.24
2022-12-18T11:27:34.827Z,101987.48
2022-12-18T11:32:40.284Z,101999.66
2022-12-18T11:37:47.064Z,101996.95
2022-12-18T11:42:55.668Z,102000.09
2022-12-18T11:48:01.393Z,101994.01
2022-12-18T11:53:06.265Z,101993.30
2022-12-18T11:58:18.275Z,101998.36
2022-12-18T12:03:40.111Z,102006.73
2022-12-18T12:08:57.268Z,102021.75
2022-12-18T12:14:02.663Z,102027.20
2022-12-18T12:19:08.074Z,102026.52
2022-12-18T12:24:10.500Z,102030.52
2022-12-18T12:29:21.299Z,102039.01
2022-12-18T12:34:35.579Z,102050.90
2022-12-18T12:39:41.635Z,102052.35
2022-12-18T12:44:56.209Z,102049.40
2022-12-18T12:50:08.089Z,102035.59
2022-12-18T12:55:16.951Z,102039.61
2022-12-18T13:00:20.965Z,102039.37
2022-12-18T13:05:30.029Z,102039.91
2022-12-18T13:10:34.008Z,102036.95
2022-12-18T13:15:41.969Z,102050.75
2022-12-18T13:20:53.715Z,102051.76
2022-12-18T13:26:28.146Z,102057.30
2022-12-18T13:31:37.514Z,102068.37
2022-12-18T13:36:40.418Z,102066.19
2022-12-18T13:41:43.637Z,102072.03
2022-12-18T13:46:47.799Z,102075.94
2022-12-18T13:51:52.700Z,102072.50
2022-12-18T13:56:55.655Z,102077.86
2022-12-18T14:02:02.996Z,102084.09
2022-12-18T14:07:11.598Z,102092.59
2022-12-18T14:12:25.648Z,102102.67
2022-12-18T14:17:28.485Z,102109.86
2022-12-18T14:22:31.754Z,102115.98
2022-12-18T14:27:39.854Z,102125.49
2022-12-18T14:32:42.328Z,102130.16
2022-12-18T14:37:44.811Z,102131.85
2022-12-18T14:42:47.378Z,102132.91
2022-12-18T14:47:49.874Z,102130.19
2022-12-18T14:52:53.335Z,102138.88
2022-12-18T14:57:57.199Z,102133.60
2022-12-18T15:02:59.841Z,102137.89
2022-12-18T15:08:03.521Z,102136.23
2022-12-18T15:13:06.319Z,102136.42
2022-12-18T15:18:08.760Z,102141.20
2022-12-18T15:23:16.080Z,102143.06
2022-12-18T15:28:24.662Z,102146.01
2022-12-18T15:33:31.937Z,102139.48
2022-12-18T15:38:34.462Z,102135.58
2022-12-18T15:43:39.151Z,102146.11
2022-12-18T15:48:45.799Z,102144.37
2022-12-18T15:53:51.097Z,102135.15
2022-12-18T15:58:53.585Z,102135.41
2022-12-18T16:03:57.033Z,102144.99
2022-12-18T16:08:59.774Z,102144.83
2022-12-18T16:14:02.314Z,102139.73
2022-12-18T16:19:05.029Z,102133.02
2022-12-18T16:24:15.796Z,102141.37
2022-12-18T16:29:19.208Z,102150.45
2022-12-18T16:34:28.755Z,102143.77
2022-12-18T16:39:31.758Z,102146.05
2022-12-18T16:44:34.827Z,102142.02
2022-12-18T16:49:38.454Z,102130.27
2022-12-18T16:54:40.964Z,102140.13
2022-12-18T16:59:43.800Z,102137.58
2022-12-18T17:04:47.309Z,102134.23
2022-12-18T17:09:52.005Z,102144.71
2022-12-18T17:14:54.512Z,102164.21
2022-12-18T17:19:57.076Z,102183.27
2022-12-18T17:24:59.573Z,102188.55
2022-12-18T17:30:02.582Z,102174.69
2022-12-18T17:35:07.373Z,102168.92
2022-12-18T17:40:10.576Z,102172.51
2022-12-18T17:45:13.046Z,102160.02
2022-12-18T17:50:15.690Z,102142.41
2022-12-18T17:55:18.319Z,102136.20
2022-12-18T18:01:38.518Z,102126.88
2022-12-18T18:06:53.182Z,102130.64
2022-12-18T18:11:58.655Z,102136.75
2022-12-18T18:17:04.664Z,102132.04
2022-12-18T18:22:07.524Z,102120.28
2022-12-18T18:27:10.383Z,102114.92
2022-12-18T18:32:12.998Z,102120.95
2022-12-18T18:37:15.475Z,102133.13
2022-12-18T18:42:17.942Z,102133.52
2022-12-18T18:47:20.948Z,102147.83
2022-12-18T18:52:23.590Z,102150.52
2022-12-18T18:57:30.294Z,102152.94
2022-12-18T19:02:33.364Z,102147.70
2022-12-18T19:07:36.025Z,102139.35
2022-12-18T19:12:41.517Z,102137.19
2022-12-18T19:17:46.951Z,102133.83
2022-12-18T19:22:54.988Z,102141.10
2022-12-18T19:27:58.323Z,102138.42
2022-12-18T19:33:09.756Z,102151.00
2022-12-18T19:38:23.271Z,102157.45
2022-12-18T19:43:25.921Z,102163.80
2022-12-18T19:48:29.243Z,102170.66
2022-12-18T19:53:32.031Z,102170.14
2022-12-18T19:58:35.140Z,102173.09
2022-12-18T20:03:37.925Z,102172.56
2022-12-18T20:08:41.480Z,102170.13
2022-12-18T20:13:44.842Z,102167.76
2022-12-18T20:18:49.064Z,102165.81
2022-12-18T20:23:52.458Z,102155.78
2022-12-18T20:28:55.801Z,102168.13
2022-12-18T20:34:01.484Z,102152.98
2022-12-18T20:39:06.541Z,102151.83
2022-12-18T20:44:21.772Z,102149.56
2022-12-18T20:49:27.310Z,102151.20
2022-12-18T20:54:29.969Z,102169.89
2022-12-18T20:59:32.647Z,102165.20
2022-12-18T21:04:35.141Z,102173.25
2022-12-18T21:09:38.650Z,102171.05
2022-12-18T21:14:42.816Z,102153.84
2022-12-18T21:19:45.278Z,102126.27
2022-12-18T21:24:48.899Z,102120.23
2022-12-18T21:29:52.247Z,102122.40
2022-12-18T21:34:55.235Z,102121.45
2022-12-18T21:39:57.725Z,102116.48
2022-12-18T21:45:00.372Z,102118.52
2022-12-18T21:50:03.143Z,102126.47
2022-12-18T21:55:09.341Z,102134.19
2022-12-18T22:00:18.752Z,102144.84
2022-12-18T22:05:22.326Z,102145.52
2022-12-18T22:10:24.795Z,102142.91
2022-12-18T22:15:27.349Z,102140.17
2022-12-18T22:20:30.270Z,102149.27
2022-12-18T22:25:33.988Z,102145.41
2022-12-18T22:30:37.706Z,102143.27
2022-12-18T22:35:40.261Z,102137.66
2022-12-18T22:40:43.625Z,102134.05
2022-12-18T22:45:47.263Z,102129.06
2022-12-18T22:50:49.865Z,102134.91
2022-12-18T22:56:00.463Z,102133.67
2022-12-18T23:01:03.046Z,102134.42
2022-12-18T23:06:06.977Z,102140.93
2022-12-18T23:11:10.700Z,102144.23
2022-12-18T23:16:16.413Z,102146.02
2022-12-18T23:21:20.644Z,102142.58
2022-12-18T23:26:25.396Z,102137.90
2022-12-18T23:31:30.633Z,102141.89
2022-12-18T23:36:43.883Z,102145.52
2022-12-18T23:41:49.187Z,102140.12
2022-12-18T23:46:51.800Z,102140.90
2022-12-18T23:51:55.031Z,102135.29
2022-12-18T23:56:57.544Z,102132.36
